To NAV CANADA Home Page Login to a new session Search on AWWS site Disclaimer Vers la page française équivalente Tips FAQ What's new on the site To the Forecasts and Observations / NOTAM section To "File a Flight Plan" website Publications and other links Update of the User's profile FIC Telephone Numbers My Weather Data Folder Route Weather Data Regional Weather Data Local Weather Data To the Forecasts and Observations / NOTAM section
Request Generated 09/16/2021 at 15:01:41 UTC . Weather information available at that time is displayed.

METAR/TAF

GANDER INTL/NL    

METAR CYQX 161400Z 19011G23KT 20SM BKN013 OVC035 16/15 A2996 RMK SC5SC3 SLP151 DENSITY ALT 700FT=
METAR CYQX 161300Z 21013G27KT 20SM RA BKN013 OVC050 15/14 A2999 RMK SC6SC2 SLP158 DENSITY ALT 500FT=
SPECI CYQX 161228Z 20012G23KT 170V240 20SM -RA BKN015 OVC050 15/13 A2999 RMK SC7SC1 SLP158 DENSITY ALT 500FT=
METAR CYQX 161200Z 21012G20KT 160V240 20SM BKN013 OVC040 14/12 A2999 RMK SC7SC1 SLP160 DENSITY ALT 500FT=

TAF CYQX 161141Z 1612/1712 22015G25KT 3SM -SHRA BR OVC015 TEMPO
1612/1617 P6SM NSW SCT015 OVC040 PROB30 1615/1617 2SM SHRA BR
OVC008
FM161700 25015G25KT P6SM BKN030 OVC150 TEMPO 1617/1619 P6SM -SHRA
BKN020 OVC150 PROB30 1617/1619 VRB20G35KT 2SM TSRA BR BKN008
OVC020CB
FM161900 28012G22KT P6SM BKN030
BECMG 1619/1621 28012KT FEW030
RMK NXT FCST BY 161800Z=
Your time UTC time
Weather data provided by Environment Canada and NAV CANADA